Time;durP1;ratioP1;P1;durP2;ratioP2;P2;SDS_P1;SDS_P2;PMS_P1;PMS_P2;Temp;Humidity;BMP_temperature;BMP_pressure;BME280_temperature;BME280_humidity;BME280_pressure;Samples;Min_cycle;Max_cycle;Signal;HPM_P1;HPM_P2
2024/03/04 00:00:38;;;;;;;17.02;11.05;;;;;;;4.02;90.91;94408.50;6251945;22;20007;-75
2024/03/04 00:03:03;;;;;;;16.33;10.43;;;;;;;3.99;91.23;94382.97;6275671;22;20052;-74
2024/03/04 00:05:29;;;;;;;17.25;10.68;;;;;;;4.02;90.93;94385.34;6275763;22;20026;-74
2024/03/04 00:07:56;;;;;;;21.00;10.20;;;;;;;4.27;91.49;94401.78;6277357;22;19999;-74
2024/03/04 00:10:21;;;;;;;17.90;10.93;;;;;;;4.38;90.78;94401.09;6277036;22;20054;-74
2024/03/04 00:12:47;;;;;;;18.17;9.88;;;;;;;4.21;90.83;94397.03;6304947;22;19999;-75
2024/03/04 00:15:13;;;;;;;17.40;10.77;;;;;;;4.06;91.07;94374.88;6277673;22;20011;-74
2024/03/04 00:17:40;;;;;;;17.25;10.07;;;;;;;4.23;90.63;94390.88;6252752;22;20000;-75
2024/03/04 00:20:09;;;;;;;17.83;11.57;;;;;;;4.38;90.21;94395.94;6227495;22;20373;-74
2024/03/04 00:22:35;;;;;;;15.60;9.65;;;;;;;4.34;90.08;94386.75;6253685;22;20003;-74
2024/03/04 00:25:00;;;;;;;16.05;9.98;;;;;;;4.37;90.14;94399.41;6278407;22;20064;-74
2024/03/04 00:27:26;;;;;;;15.75;9.48;;;;;;;4.40;89.86;94402.63;6303987;22;20003;-74
2024/03/04 00:29:52;;;;;;;14.65;9.25;;;;;;;4.26;89.43;94382.13;6251799;22;20514;-74
2024/03/04 00:32:17;;;;;;;14.98;9.38;;;;;;;4.34;89.48;94395.28;6227146;22;20003;-74
2024/03/04 00:34:43;;;;;;;14.35;9.10;;;;;;;4.25;89.56;94398.47;6277853;22;20014;-74
2024/03/04 00:37:09;;;;;;;14.65;9.55;;;;;;;4.20;89.40;94395.38;6304920;22;20007;-75
2024/03/04 00:39:35;;;;;;;15.43;8.52;;;;;;;4.22;88.47;94393.53;6277955;22;20011;-74
2024/03/04 00:42:00;;;;;;;14.95;9.02;;;;;;;4.05;88.74;94375.81;6277949;22;19999;-75
2024/03/04 00:44:26;;;;;;;14.35;9.48;;;;;;;3.93;89.47;94367.13;6251748;22;20050;-74
2024/03/04 00:46:51;;;;;;;14.93;8.98;;;;;;;4.04;90.32;94382.69;6277713;22;19999;-74
2024/03/04 00:49:16;;;;;;;14.07;9.18;;;;;;;4.11;90.40;94386.50;6277383;22;20015;-74
2024/03/04 00:51:42;;;;;;;16.05;9.63;;;;;;;4.10;90.00;94390.00;6277522;22;20003;-74
2024/03/04 00:54:07;;;;;;;16.00;9.85;;;;;;;3.99;89.76;94372.69;6251928;22;20397;-74
2024/03/04 00:56:32;;;;;;;18.75;9.60;;;;;;;4.01;89.54;94381.16;6252276;22;20028;-75
2024/03/04 00:58:58;;;;;;;14.43;9.18;;;;;;;4.06;89.98;94380.84;6276636;22;20018;-75
2024/03/04 01:01:24;;;;;;;15.95;9.80;;;;;;;3.95;89.42;94363.53;6305029;22;20010;-75
2024/03/04 01:03:50;;;;;;;13.85;8.85;;;;;;;4.00;89.05;94381.22;6305017;22;20063;-74
2024/03/04 01:06:16;;;;;;;13.32;8.77;;;;;;;4.01;88.86;94376.00;6251900;22;20086;-74
2024/03/04 01:08:42;;;;;;;14.20;9.15;;;;;;;3.93;89.32;94380.00;6305707;22;20011;-75
2024/03/04 01:11:07;;;;;;;14.73;8.95;;;;;;;4.02;89.58;94361.41;6276887;22;20007;-75
2024/03/04 01:13:33;;;;;;;15.88;9.43;;;;;;;4.08;89.50;94366.13;6275283;22;20034;-75
2024/03/04 01:15:59;;;;;;;16.95;10.10;;;;;;;4.19;89.74;94380.88;6277246;22;20007;-75
2024/03/04 01:18:24;;;;;;;17.23;10.38;;;;;;;3.88;89.63;94351.19;6304805;22;20010;-74
2024/03/04 01:20:52;;;;;;;14.85;9.75;;;;;;;4.06;89.79;94377.44;6252234;22;20007;-75
2024/03/04 01:23:17;;;;;;;14.52;9.18;;;;;;;4.08;90.00;94378.19;6252626;22;20018;-75
2024/03/04 01:25:44;;;;;;;18.20;9.52;;;;;;;4.19;89.84;94380.88;6226373;22;20019;-75
2024/03/04 01:28:09;;;;;;;16.05;9.25;;;;;;;3.89;89.52;94339.97;6252588;22;20433;-75
2024/03/04 01:30:35;;;;;;;14.18;9.30;;;;;;;4.19;89.43;94378.31;6252042;22;20014;-75
2024/03/04 01:33:03;;;;;;;12.77;8.25;;;;;;;3.93;88.83;94362.81;6304701;22;20009;-75
2024/03/04 01:35:28;;;;;;;15.77;9.00;;;;;;;4.15;89.44;94387.13;6252285;22;20094;-75
2024/03/04 01:37:54;;;;;;;14.00;9.10;;;;;;;4.06;90.33;94383.41;6251893;22;20003;-75
2024/03/04 01:40:19;;;;;;;15.93;9.60;;;;;;;4.17;90.14;94385.28;6305048;22;20012;-75
2024/03/04 01:42:45;;;;;;;15.88;10.30;;;;;;;4.23;89.38;94384.88;6304707;22;20429;-75
2024/03/04 01:45:26;;;;;;;17.58;10.02;;;;;;;4.16;89.79;94375.94;6251290;22;20012;-75
2024/03/04 01:48:01;;;;;;;17.52;10.05;;;;;;;4.07;89.51;94366.22;6277399;22;20064;-74
2024/03/04 01:50:28;;;;;;;17.83;9.95;;;;;;;4.20;89.33;94379.94;6251858;22;20025;-75
2024/03/04 01:52:55;;;;;;;16.30;9.88;;;;;;;3.92;89.23;94368.88;6252084;22;20010;-75
2024/03/04 01:55:20;;;;;;;15.43;8.93;;;;;;;3.91;89.10;94385.22;6228227;22;20153;-75
2024/03/04 01:57:47;;;;;;;15.63;8.93;;;;;;;3.86;88.98;94384.69;6253651;22;20011;-74
2024/03/04 02:00:13;;;;;;;15.60;9.18;;;;;;;3.78;89.49;94385.16;6228579;22;20014;-75
2024/03/04 02:02:42;;;;;;;18.05;9.60;;;;;;;3.80;89.17;94387.63;6253739;22;20011;-75
2024/03/04 02:05:11;;;;;;;20.48;10.55;;;;;;;3.76;90.17;94391.31;6254830;22;20019;-75
2024/03/04 02:07:40;;;;;;;19.05;9.80;;;;;;;3.66;90.15;94375.66;6253847;22;20069;-75
2024/03/04 02:10:06;;;;;;;18.25;10.52;;;;;;;3.63;89.91;94391.25;6279707;22;20018;-75
2024/03/04 02:12:32;;;;;;;13.93;9.57;;;;;;;3.78;89.29;94394.63;6279581;22;20003;-75
2024/03/04 02:14:59;;;;;;;17.02;9.90;;;;;;;3.87;88.90;94394.03;6253886;22;20011;-75
2024/03/04 02:17:25;;;;;;;16.60;9.40;;;;;;;3.66;89.10;94391.06;6278746;22;20038;-75
2024/03/04 02:19:51;;;;;;;16.95;10.27;;;;;;;3.57;89.13;94394.22;6253797;22;20322;-75
2024/03/04 02:22:16;;;;;;;18.02;9.50;;;;;;;3.56;89.52;94372.00;6279527;22;20011;-75
2024/03/04 02:24:42;;;;;;;16.55;8.80;;;;;;;3.55;89.23;94391.72;6253743;22;20011;-74
2024/03/04 02:27:08;;;;;;;16.13;9.57;;;;;;;3.50;90.32;94370.66;6279153;22;20003;-74
2024/03/04 02:29:33;;;;;;;16.15;9.77;;;;;;;3.69;90.72;94390.88;6278809;22;20015;-75
2024/03/04 02:31:59;;;;;;;17.02;9.45;;;;;;;3.77;90.31;94393.78;6253659;22;20008;-75
2024/03/04 02:34:24;;;;;;;16.83;9.75;;;;;;;3.54;89.96;94394.41;6253434;22;20021;-75
2024/03/04 02:36:50;;;;;;;16.98;9.07;;;;;;;3.57;89.70;94400.19;6278360;22;20236;-75
2024/03/04 02:39:15;;;;;;;16.98;9.50;;;;;;;3.46;89.57;94392.31;6253055;22;20011;-75
2024/03/04 02:41:41;;;;;;;16.73;10.18;;;;;;;3.40;90.18;94394.41;6253445;22;20007;-75
2024/03/04 02:44:06;;;;;;;16.17;9.15;;;;;;;3.37;89.99;94398.00;6253465;22;20011;-74
2024/03/04 02:46:32;;;;;;;14.82;8.75;;;;;;;3.46;90.59;94402.59;6278648;22;20350;-75
2024/03/04 02:48:58;;;;;;;15.77;9.40;;;;;;;3.41;90.43;94396.91;6278457;22;20008;-75
2024/03/04 02:51:23;;;;;;;16.40;9.05;;;;;;;3.25;89.81;94368.75;6253442;22;20612;-75
2024/03/04 02:53:48;;;;;;;16.15;9.27;;;;;;;3.48;89.56;94400.75;6227282;22;20365;-75
2024/03/04 02:56:14;;;;;;;13.75;8.00;;;;;;;3.38;90.00;94407.38;6278484;22;20397;-75
2024/03/04 02:58:42;;;;;;;16.10;8.57;;;;;;;3.40;90.26;94408.09;6253540;22;20011;-75
2024/03/04 03:01:08;;;;;;;14.00;9.10;;;;;;;3.31;89.67;94411.22;6253576;22;20010;-75
2024/03/04 03:03:33;;;;;;;14.45;8.35;;;;;;;3.11;89.53;94394.44;6278523;22;19999;-75
2024/03/04 03:05:58;;;;;;;17.17;8.75;;;;;;;3.36;90.20;94397.16;6305339;22;20011;-74
2024/03/04 03:08:25;;;;;;;15.57;8.52;;;;;;;3.25;90.68;94404.72;6305730;22;20408;-75
2024/03/04 03:10:50;;;;;;;14.63;7.78;;;;;;;3.29;90.46;94418.22;6305884;22;19999;-75
2024/03/04 03:13:16;;;;;;;14.38;7.85;;;;;;;3.20;90.37;94411.03;6253248;22;20018;-75
2024/03/04 03:15:41;;;;;;;14.45;8.30;;;;;;;3.20;91.20;94408.47;6253042;22;20015;-75
2024/03/04 03:18:08;;;;;;;14.27;8.35;;;;;;;3.09;91.50;94402.25;6253047;22;20003;-75
2024/03/04 03:20:33;;;;;;;12.65;7.78;;;;;;;3.33;91.24;94419.66;6278919;22;20373;-74
2024/03/04 03:22:59;;;;;;;14.55;8.57;;;;;;;3.28;91.76;94413.97;6227861;22;20037;-74
2024/03/04 03:25:26;;;;;;;13.45;8.30;;;;;;;3.41;90.69;94414.06;6252692;22;20018;-74
2024/03/04 03:27:52;;;;;;;11.38;7.35;;;;;;;3.52;87.25;94420.19;6278827;22;20007;-75
2024/03/04 03:30:18;;;;;;;12.90;7.32;;;;;;;3.46;86.48;94425.69;6279101;22;20082;-75
2024/03/04 03:32:45;;;;;;;11.65;7.82;;;;;;;3.39;87.59;94424.41;6278271;22;20072;-74
2024/03/04 03:35:11;;;;;;;12.77;8.10;;;;;;;3.34;87.88;94422.13;6253389;22;20014;-74
2024/03/04 03:37:36;;;;;;;15.80;8.20;;;;;;;3.13;88.86;94423.44;6305666;22;20007;-74
2024/03/04 03:40:02;;;;;;;11.70;7.63;;;;;;;2.98;89.90;94412.34;6278316;22;20023;-75
2024/03/04 03:42:30;;;;;;;12.73;8.15;;;;;;;2.78;90.11;94415.25;6306008;22;20008;-75
2024/03/04 03:44:56;;;;;;;14.60;8.35;;;;;;;2.88;90.05;94430.00;6252925;22;20022;-75
2024/03/04 03:47:21;;;;;;;14.20;8.45;;;;;;;2.86;91.02;94428.44;6253185;22;20003;-74
2024/03/04 03:49:47;;;;;;;11.75;7.38;;;;;;;2.79;91.62;94409.22;6252557;22;20007;-74
2024/03/04 03:52:13;;;;;;;13.55;8.75;;;;;;;2.80;91.66;94421.13;6305702;22;20003;-75
2024/03/04 03:54:38;;;;;;;13.43;8.57;;;;;;;2.87;91.98;94425.81;6305212;22;20011;-75
2024/03/04 03:57:03;;;;;;;16.30;8.40;;;;;;;2.87;92.41;94438.63;6252107;22;20011;-74
2024/03/04 03:59:29;;;;;;;13.60;8.10;;;;;;;2.80;91.83;94424.50;6278471;22;20034;-75
2024/03/04 04:01:54;;;;;;;13.40;8.02;;;;;;;2.76;92.13;94435.03;6252948;22;20441;-75
2024/03/04 04:04:20;;;;;;;11.85;7.72;;;;;;;3.01;91.27;94435.25;6252090;22;20019;-75
2024/03/04 04:06:45;;;;;;;18.20;8.30;;;;;;;2.87;92.11;94435.22;6278606;22;20244;-75
2024/03/04 04:09:10;;;;;;;16.17;9.02;;;;;;;2.87;91.33;94437.78;6278182;22;20007;-74
2024/03/04 04:11:36;;;;;;;14.07;7.65;;;;;;;2.82;91.97;94419.28;6227436;22;20021;-75
2024/03/04 04:14:02;;;;;;;12.85;8.25;;;;;;;2.90;92.43;94417.09;6251878;22;20030;-75
2024/03/04 04:16:28;;;;;;;14.77;8.20;;;;;;;2.94;92.91;94436.53;6252347;22;20354;-75
2024/03/04 04:18:54;;;;;;;13.55;8.35;;;;;;;2.99;92.16;94426.81;6278362;22;20078;-74
2024/03/04 04:21:22;;;;;;;14.38;8.30;;;;;;;2.98;92.11;94440.56;6278223;22;19999;-75
2024/03/04 04:23:48;;;;;;;10.95;7.22;;;;;;;2.93;91.40;94436.63;6252212;22;20007;-75
2024/03/04 04:26:24;;;;;;;10.68;7.72;;;;;;;2.99;92.31;94436.25;6252136;22;20015;-75
2024/03/04 04:28:50;;;;;;;16.10;7.85;;;;;;;3.03;91.77;94435.97;6252974;22;20018;-75
2024/03/04 04:31:22;;;;;;;12.63;7.85;;;;;;;3.05;91.60;94434.16;6252282;22;20003;-74
2024/03/04 04:33:48;;;;;;;11.45;7.28;;;;;;;2.91;91.75;94442.66;6277672;22;20018;-75
2024/03/04 04:36:14;;;;;;;11.55;7.05;;;;;;;2.84;91.88;94428.56;6257020;22;20007;-74
2024/03/04 04:38:45;;;;;;;13.88;7.60;;;;;;;2.97;91.33;94449.16;6297249;22;20007;-75
2024/03/04 04:41:12;;;;;;;13.35;7.47;;;;;;;2.86;91.21;94451.53;6258292;22;20010;-75
2024/03/04 04:43:37;;;;;;;12.27;7.60;;;;;;;2.72;91.04;94441.25;6256199;22;20049;-75
2024/03/04 04:46:03;;;;;;;11.68;6.90;;;;;;;2.83;90.20;94449.16;6304640;22;20003;-75
2024/03/04 04:48:28;;;;;;;10.52;7.10;;;;;;;2.59;91.36;94428.31;6277189;22;20010;-75
2024/03/04 04:50:54;;;;;;;8.90;6.57;;;;;;;2.80;90.75;94452.72;6277888;22;20006;-75
2024/03/04 04:53:20;;;;;;;13.32;7.50;;;;;;;2.85;90.74;94450.72;6304535;22;20014;-75
2024/03/04 04:55:46;;;;;;;12.55;7.38;;;;;;;2.75;90.39;94436.75;6252598;22;20015;-74
2024/03/04 04:58:14;;;;;;;12.40;7.25;;;;;;;2.72;90.85;94434.38;6277918;22;20003;-75
2024/03/04 05:00:40;;;;;;;14.70;7.97;;;;;;;2.77;91.46;94459.78;6228026;22;20011;-75
2024/03/04 05:03:05;;;;;;;12.30;7.88;;;;;;;2.69;91.82;94450.78;6277529;22;20003;-75
2024/03/04 05:05:31;;;;;;;12.80;8.20;;;;;;;2.69;92.41;94461.03;6304387;22;20511;-75
2024/03/04 05:07:56;;;;;;;12.50;8.43;;;;;;;2.71;93.34;94462.69;6277676;22;20018;-75
2024/03/04 05:10:22;;;;;;;14.82;9.27;;;;;;;2.82;92.92;94468.03;6305536;22;20013;-75
2024/03/04 05:12:48;;;;;;;13.98;8.27;;;;;;;2.66;92.97;94463.78;6277555;22;19999;-75
2024/03/04 05:15:15;;;;;;;15.52;9.00;;;;;;;2.78;93.15;94471.69;6227102;22;20015;-75
2024/03/04 05:17:40;;;;;;;13.27;8.55;;;;;;;2.77;92.91;94467.47;6277717;22;20004;-75
2024/03/04 05:20:06;;;;;;;15.98;8.75;;;;;;;2.73;93.42;94468.53;6252085;22;20442;-75
2024/03/04 05:22:32;;;;;;;14.55;8.93;;;;;;;2.75;93.39;94470.13;6277815;22;20080;-75
2024/03/04 05:24:58;;;;;;;13.88;8.15;;;;;;;2.78;92.66;94471.69;6252048;22;20008;-75
2024/03/04 05:27:23;;;;;;;13.13;7.95;;;;;;;2.81;92.31;94479.19;6277626;22;20461;-75
2024/03/04 05:29:49;;;;;;;14.02;8.57;;;;;;;2.86;92.78;94482.31;6279836;22;20503;-75
2024/03/04 05:32:14;;;;;;;16.98;8.60;;;;;;;2.85;92.67;94467.84;6279058;22;20003;-75
2024/03/04 05:34:40;;;;;;;15.77;8.23;;;;;;;2.82;92.57;94475.72;6279119;22;20022;-75
2024/03/04 05:37:06;;;;;;;12.27;7.80;;;;;;;2.83;92.64;94480.75;6254127;22;20003;-75
2024/03/04 05:39:31;;;;;;;14.15;8.18;;;;;;;2.79;93.26;94483.63;6254067;22;20011;-76
2024/03/04 05:41:56;;;;;;;13.52;8.15;;;;;;;2.83;93.10;94480.75;6253748;22;20351;-75
2024/03/04 05:44:22;;;;;;;15.20;8.55;;;;;;;2.86;92.57;94472.06;6228439;22;20472;-75
2024/03/04 05:46:48;;;;;;;14.60;8.20;;;;;;;2.89;92.57;94477.00;6279239;22;20038;-75
2024/03/04 05:49:13;;;;;;;14.55;8.55;;;;;;;2.96;92.42;94485.19;6253665;22;20022;-75
2024/03/04 05:51:42;;;;;;;12.48;8.32;;;;;;;3.08;92.91;94492.16;6278679;22;20007;-76
2024/03/04 05:54:07;;;;;;;13.35;8.65;;;;;;;3.08;93.16;94494.75;6253647;22;20014;-75
2024/03/04 05:56:33;;;;;;;14.20;8.15;;;;;;;3.16;93.58;94492.53;6306718;22;20035;-76
2024/03/04 05:58:58;;;;;;;13.75;8.25;;;;;;;3.02;93.40;94462.56;6306877;22;20015;-76
2024/03/04 06:01:24;;;;;;;14.13;8.13;;;;;;;3.08;93.57;94454.50;6279232;22;19999;-75
2024/03/04 06:03:49;;;;;;;14.43;8.80;;;;;;;3.27;93.59;94487.59;6306212;22;20353;-75
2024/03/04 06:06:15;;;;;;;14.32;9.50;;;;;;;3.32;93.78;94479.63;6253583;22;20453;-76
2024/03/04 06:08:40;;;;;;;16.85;9.05;;;;;;;3.30;93.64;94471.19;6246866;22;20429;-75
2024/03/04 06:11:05;;;;;;;14.93;8.80;;;;;;;3.48;93.36;94480.38;6251869;22;20003;-75
2024/03/04 06:13:31;;;;;;;17.13;9.43;;;;;;;3.56;92.87;94483.28;6277294;22;20003;-75
2024/03/04 06:15:56;;;;;;;17.15;10.32;;;;;;;3.76;92.59;94483.81;6278143;22;20018;-75
2024/03/04 06:18:21;;;;;;;15.23;8.77;;;;;;;4.01;91.50;94483.97;6249602;22;20011;-76
2024/03/04 06:20:47;;;;;;;13.05;8.45;;;;;;;4.37;90.38;94477.41;6250097;22;20380;-76
2024/03/04 06:23:12;;;;;;;16.15;9.40;;;;;;;5.07;88.30;94478.88;6277271;22;19999;-76
2024/03/04 06:25:38;;;;;;;13.10;8.38;;;;;;;5.81;84.24;94467.78;6252786;22;20044;-75
2024/03/04 06:28:03;;;;;;;15.68;8.40;;;;;;;6.51;79.90;94461.19;6304266;22;20010;-75
2024/03/04 06:30:29;;;;;;;12.43;8.05;;;;;;;7.39;77.28;94471.88;6277001;22;20042;-76
2024/03/04 06:32:54;;;;;;;14.50;8.27;;;;;;;8.03;73.14;94454.94;6252950;22;20347;-76
2024/03/04 06:35:20;;;;;;;13.02;7.70;;;;;;;8.52;72.23;94451.03;6251391;22;20015;-76
2024/03/04 06:37:45;;;;;;;11.82;6.97;;;;;;;9.32;69.70;94466.06;6305466;22;19999;-76
2024/03/04 06:40:11;;;;;;;10.02;6.80;;;;;;;10.34;64.34;94473.06;6275821;22;20007;-76
2024/03/04 06:42:37;;;;;;;10.63;6.60;;;;;;;10.69;62.91;94477.72;6256011;22;20015;-76
2024/03/04 06:45:02;;;;;;;10.98;7.40;;;;;;;10.91;62.62;94466.25;6251599;22;20358;-76
2024/03/04 06:47:28;;;;;;;11.45;7.03;;;;;;;11.65;59.88;94468.19;6276367;22;20007;-76
2024/03/04 06:49:54;;;;;;;9.75;6.28;;;;;;;12.48;58.46;94458.66;6303871;22;20086;-76
2024/03/04 06:52:19;;;;;;;11.35;6.63;;;;;;;13.16;55.86;94452.88;6276930;22;20014;-77
2024/03/04 06:54:47;;;;;;;13.02;10.57;;;;;;;13.86;53.49;94476.34;6278019;22;20499;-79
2024/03/04 06:57:17;;;;;;;23.90;15.55;;;;;;;13.82;52.77;94475.06;6252265;22;20381;-77
2024/03/04 06:59:42;;;;;;;19.55;13.73;;;;;;;14.05;51.60;94464.88;6227446;22;20437;-78
2024/03/04 07:02:08;;;;;;;28.52;17.77;;;;;;;12.81;54.26;94473.75;6304524;22;20014;-78
2024/03/04 07:04:33;;;;;;;48.22;30.55;;;;;;;11.52;57.91;94454.66;6252536;22;20474;-80
2024/03/04 07:06:58;;;;;;;89.68;51.13;;;;;;;11.73;59.30;94470.91;6252984;22;20392;-80
2024/03/04 07:09:24;;;;;;;29.15;20.08;;;;;;;11.97;57.59;94465.22;6246819;22;20461;-76
2024/03/04 07:11:49;;;;;;;24.25;15.18;;;;;;;12.48;56.13;94478.66;6304783;22;20003;-73
2024/03/04 07:14:14;;;;;;;14.60;11.50;;;;;;;13.49;51.85;94442.72;6303867;22;20061;-79
2024/03/04 07:16:53;;;;;;;18.25;11.50;;;;;;;12.18;56.29;94464.97;6276109;22;20388;-81
2024/03/04 07:19:18;;;;;;;17.35;12.23;;;;;;;12.57;55.54;94443.09;6187216;23;20163;-80
2024/03/04 07:21:44;;;;;;;16.23;11.48;;;;;;;14.49;51.17;94474.34;6212678;23;20008;-83
2024/03/04 07:24:10;;;;;;;17.65;11.23;;;;;;;14.75;48.15;94427.22;6214115;23;20073;-80
2024/03/04 07:26:35;;;;;;;19.83;13.75;;;;;;;15.90;46.30;94476.88;6238506;23;20020;-76
2024/03/04 07:29:02;;;;;;;20.17;13.40;;;;;;;15.23;46.30;94393.38;6239420;23;20023;-81
2024/03/04 07:31:28;;;;;;;16.08;11.10;;;;;;;15.14;46.43;94400.41;6163837;23;20525;-85
2024/03/04 07:33:54;;;;;;;16.25;11.32;;;;;;;15.22;46.38;94405.63;6191709;23;20090;-83
2024/03/04 07:36:19;;;;;;;13.70;10.80;;;;;;;14.86;48.40;94426.09;6215725;23;20008;-81
2024/03/04 07:38:45;;;;;;;14.95;10.55;;;;;;;15.74;46.11;94477.72;6208314;23;20023;-76
2024/03/04 07:41:10;;;;;;;14.25;10.73;;;;;;;16.05;45.10;94441.97;6238865;23;20052;-76
2024/03/04 07:43:35;;;;;;;16.17;11.00;;;;;;;16.79;43.97;94473.09;6238747;23;20011;-76
2024/03/04 07:46:01;;;;;;;14.93;11.05;;;;;;;15.04;47.38;94450.25;6240461;23;20008;-76
2024/03/04 07:48:26;;;;;;;13.45;10.63;;;;;;;17.11;43.55;94472.06;6213834;23;20012;-77
2024/03/04 07:50:52;;;;;;;18.40;12.27;;;;;;;16.43;44.73;94472.75;6258371;22;20069;-76
2024/03/04 07:53:17;;;;;;;16.10;11.68;;;;;;;17.01;43.64;94466.22;6276991;22;20003;-77
2024/03/04 07:55:43;;;;;;;16.48;11.95;;;;;;;16.46;43.76;94431.28;6275245;22;20011;-76
2024/03/04 07:58:09;;;;;;;16.50;12.00;;;;;;;16.89;43.76;94450.09;6277619;22;20046;-77
2024/03/04 08:00:36;;;;;;;14.38;10.70;;;;;;;18.98;39.07;94442.13;6250820;22;20014;-77
2024/03/04 08:03:01;;;;;;;14.38;10.45;;;;;;;18.59;39.56;94455.66;6251694;22;20007;-77
2024/03/04 08:05:27;;;;;;;15.68;12.38;;;;;;;17.95;40.72;94464.13;6277056;22;20022;-77
2024/03/04 08:07:52;;;;;;;14.80;11.50;;;;;;;16.79;42.69;94456.53;6276853;22;20469;-77
2024/03/04 08:10:18;;;;;;;23.65;16.13;;;;;;;16.91;42.97;94469.09;6304620;22;20011;-77
2024/03/04 08:12:43;;;;;;;18.08;12.43;;;;;;;16.34;44.14;94464.13;6223515;22;20007;-77
2024/03/04 08:15:09;;;;;;;21.77;12.98;;;;;;;15.46;45.23;94433.59;6250151;22;20023;-77
2024/03/04 08:17:35;;;;;;;25.25;17.65;;;;;;;15.11;47.13;94455.69;6249003;22;20079;-77
2024/03/04 08:20:04;;;;;;;24.67;16.70;;;;;;;15.10;46.68;94427.88;6276258;22;20353;-77
2024/03/04 08:22:31;;;;;;;15.45;12.27;;;;;;;14.49;48.73;94449.03;6250046;22;20003;-77
2024/03/04 08:24:57;;;;;;;17.10;10.98;;;;;;;14.21;50.15;94448.47;6275112;22;20094;-77
2024/03/04 08:27:22;;;;;;;16.10;12.02;;;;;;;12.86;53.39;94448.88;6277721;22;20357;-77
2024/03/04 08:29:50;;;;;;;18.80;12.25;;;;;;;12.38;54.84;94446.66;6303982;22;20438;-77
2024/03/04 08:32:16;;;;;;;18.38;12.63;;;;;;;11.91;56.57;94444.97;6303058;22;20034;-77
2024/03/04 08:34:42;;;;;;;18.42;12.70;;;;;;;12.14;57.35;94421.97;6249720;22;20342;-77
2024/03/04 08:37:07;;;;;;;19.60;11.93;;;;;;;11.83;58.10;94450.03;6251002;22;20349;-77
2024/03/04 08:39:33;;;;;;;15.30;11.27;;;;;;;11.87;58.34;94443.63;6250118;22;20349;-77
2024/03/04 08:41:58;;;;;;;17.10;12.68;;;;;;;11.32;59.89;94414.91;6301974;22;20380;-77
2024/03/04 08:44:24;;;;;;;22.02;16.10;;;;;;;11.25;60.96;94432.00;6251081;22;20334;-79
2024/03/04 08:46:49;;;;;;;21.90;16.27;;;;;;;10.90;62.18;94412.66;6223840;22;20007;-78
2024/03/04 08:49:15;;;;;;;16.08;11.88;;;;;;;10.95;62.57;94413.06;6225937;22;20449;-78
2024/03/04 08:51:42;;;;;;;14.13;10.07;;;;;;;11.56;58.71;94407.44;6223593;22;20506;-77
2024/03/04 08:54:07;;;;;;;19.45;10.50;;;;;;;11.09;60.88;94388.41;6276870;22;20018;-77
2024/03/04 08:56:33;;;;;;;16.83;10.98;;;;;;;10.85;63.01;94431.25;6250494;22;20015;-77
2024/03/04 08:58:59;;;;;;;14.80;10.70;;;;;;;10.89;62.79;94431.78;6275900;22;20429;-77
2024/03/04 09:01:31;;;;;;;12.90;9.88;;;;;;;10.61;62.27;94397.88;6276420;22;20449;-77
2024/03/04 09:03:57;;;;;;;14.75;8.70;;;;;;;10.98;61.69;94422.34;6225955;22;20098;-76
2024/03/04 09:06:24;;;;;;;13.57;8.18;;;;;;;11.15;59.75;94399.06;6252643;22;20004;-77
2024/03/04 09:08:50;;;;;;;15.20;9.48;;;;;;;11.24;59.24;94401.78;6250571;22;20007;-78
2024/03/04 09:11:15;;;;;;;14.55;9.32;;;;;;;11.04;60.76;94394.03;6276361;22;20053;-78
2024/03/04 09:13:41;;;;;;;18.33;10.93;;;;;;;11.10;61.63;94403.84;6249972;22;20015;-78
2024/03/04 09:16:06;;;;;;;21.42;12.00;;;;;;;10.99;62.45;94411.00;6251688;22;20015;-78
2024/03/04 09:18:33;;;;;;;12.68;9.73;;;;;;;11.16;62.04;94418.88;6276731;22;20008;-78
2024/03/04 09:21:02;;;;;;;17.10;10.10;;;;;;;11.63;60.35;94416.28;6275101;22;20078;-78
2024/03/04 09:23:27;;;;;;;16.75;10.75;;;;;;;11.51;61.14;94412.22;6304866;22;20465;-77
2024/03/04 09:25:54;;;;;;;16.17;9.55;;;;;;;11.43;61.02;94412.13;6303254;22;20018;-78
2024/03/04 09:28:20;;;;;;;13.10;9.32;;;;;;;11.66;60.59;94403.97;6304538;22;20003;-78
2024/03/04 09:30:45;;;;;;;12.48;8.73;;;;;;;11.83;60.26;94417.03;6249019;22;20338;-78
2024/03/04 09:33:11;;;;;;;12.98;9.70;;;;;;;11.58;61.01;94421.09;6276613;22;20010;-78
2024/03/04 09:35:37;;;;;;;14.80;9.95;;;;;;;11.63;61.23;94416.28;6226428;22;20015;-78
2024/03/04 09:38:02;;;;;;;15.48;10.32;;;;;;;11.24;61.55;94393.97;6250472;22;20007;-78
2024/03/04 09:40:27;;;;;;;12.95;9.75;;;;;;;11.11;62.09;94389.88;6305039;22;20011;-78
2024/03/04 09:42:53;;;;;;;12.93;9.02;;;;;;;11.49;60.69;94413.34;6274187;22;20021;-78
2024/03/04 09:45:21;;;;;;;14.52;8.85;;;;;;;11.54;60.44;94411.13;6277360;22;20334;-78
2024/03/04 09:47:50;;;;;;;10.43;8.00;;;;;;;11.60;60.66;94407.97;6275695;22;20015;-77
2024/03/04 09:50:16;;;;;;;11.60;8.70;;;;;;;11.57;59.82;94392.63;6225177;22;20094;-78
2024/03/04 09:52:42;;;;;;;13.13;8.43;;;;;;;11.95;59.10;94403.84;6224428;22;20012;-77
2024/03/04 09:55:08;;;;;;;13.63;9.48;;;;;;;11.73;59.29;94373.78;6224770;22;20003;-78
2024/03/04 09:57:34;;;;;;;17.08;9.43;;;;;;;11.96;59.13;94389.88;6276962;22;20011;-78
2024/03/04 09:59:59;;;;;;;15.40;11.23;;;;;;;11.79;60.72;94394.88;6223722;22;20011;-78
2024/03/04 10:02:25;;;;;;;19.70;11.32;;;;;;;11.77;61.34;94390.75;6250145;22;20041;-75
2024/03/04 10:04:52;;;;;;;18.77;12.35;;;;;;;11.19;61.69;94360.59;6275623;22;20015;-75
2024/03/04 10:07:17;;;;;;;15.35;11.40;;;;;;;11.63;61.27;94363.44;6251740;22;20011;-75
2024/03/04 10:09:43;;;;;;;18.10;12.25;;;;;;;11.65;61.51;94373.72;6250239;22;20027;-76
2024/03/04 10:12:09;;;;;;;15.38;10.98;;;;;;;11.62;61.79;94380.84;6275099;22;20003;-75
2024/03/04 10:15:00;;;;;;;13.88;9.63;;;;;;;11.72;59.74;94382.56;6251246;22;20035;-75
2024/03/04 10:17:26;;;;;;;13.43;9.90;;;;;;;11.78;60.21;94372.41;6277144;22;20064;-75
2024/03/04 10:19:59;;;;;;;15.25;11.25;;;;;;;11.83;60.23;94384.97;6252970;22;20011;-75
2024/03/04 10:22:43;;;;;;;18.48;12.75;;;;;;;11.27;62.20;94380.69;6224799;22;20007;-76
2024/03/04 10:25:12;;;;;;;19.80;12.65;;;;;;;11.41;62.24;94367.22;6282504;22;20037;-75
2024/03/04 10:27:39;;;;;;;19.45;11.20;;;;;;;11.58;61.04;94334.44;6251589;22;20053;-75
2024/03/04 10:30:15;;;;;;;15.80;11.00;;;;;;;11.81;60.99;94358.28;6278033;22;20018;-76
2024/03/04 10:32:50;;;;;;;19.40;11.95;;;;;;;12.02;59.72;94351.06;6250197;22;20007;-76
2024/03/04 10:35:16;;;;;;;18.67;12.18;;;;;;;11.59;61.12;94351.69;6278581;22;20015;-76
2024/03/04 10:37:42;;;;;;;18.83;11.93;;;;;;;11.28;60.76;94310.38;6304999;22;20433;-76
2024/03/04 10:40:09;;;;;;;19.58;11.95;;;;;;;11.73;60.82;94350.38;6251485;22;20007;-76
2024/03/04 10:42:36;;;;;;;20.67;11.82;;;;;;;11.89;59.72;94345.38;6251156;22;20373;-75
2024/03/04 10:45:02;;;;;;;17.88;12.07;;;;;;;11.93;59.91;94351.13;6251923;22;20094;-75
2024/03/04 10:47:28;;;;;;;16.23;12.13;;;;;;;11.85;60.35;94323.19;6252622;22;20031;-75
2024/03/04 10:49:53;;;;;;;17.58;11.48;;;;;;;11.63;60.00;94330.44;6225748;22;20102;-75
2024/03/04 10:52:18;;;;;;;14.75;11.25;;;;;;;11.42;61.42;94335.03;6225680;22;20011;-75
2024/03/04 10:54:45;;;;;;;20.30;15.35;;;;;;;11.48;61.20;94334.50;6252058;22;20331;-76
2024/03/04 10:57:26;;;;;;;19.42;12.18;;;;;;;11.47;61.16;94300.81;6277540;22;20042;-75
2024/03/04 10:59:55;;;;;;;16.80;12.05;;;;;;;11.85;60.21;94307.59;6280383;22;20034;-75
2024/03/04 11:02:25;;;;;;;17.55;11.55;;;;;;;11.62;60.35;94300.19;6302441;22;20026;-75
2024/03/04 11:04:53;;;;;;;14.38;10.68;;;;;;;11.89;59.47;94295.94;6278197;22;20023;-74
2024/03/04 11:07:19;;;;;;;14.75;11.20;;;;;;;12.09;59.62;94309.66;6252001;22;20042;-75
2024/03/04 11:09:47;;;;;;;15.63;10.73;;;;;;;12.11;58.56;94305.09;6251589;22;20061;-75
2024/03/04 11:12:12;;;;;;;16.00;11.20;;;;;;;12.31;58.21;94310.97;6248717;22;19999;-75
2024/03/04 11:14:41;;;;;;;14.52;10.68;;;;;;;12.19;57.78;94304.34;6252261;22;20018;-74
2024/03/04 11:17:09;;;;;;;16.00;11.88;;;;;;;12.11;58.40;94305.09;6252481;22;20087;-76
2024/03/04 11:19:38;;;;;;;20.05;11.40;;;;;;;11.99;58.84;94316.69;6277917;22;20018;-76
2024/03/04 11:22:03;;;;;;;18.77;11.93;;;;;;;12.02;58.26;94306.81;6251488;22;20014;-78